createdAt,value
2018-03-31T00:01:16.885Z,75.14
2018-03-31T00:03:44.716Z,75.14
2018-03-31T00:06:12.418Z,75.29
2018-03-31T00:08:40.653Z,75.78
2018-03-31T00:11:09.336Z,75.55
2018-03-31T00:13:37.210Z,75.51
2018-03-31T00:16:05.533Z,75.68
2018-03-31T00:18:33.604Z,75.55
2018-03-31T00:21:01.432Z,76.00
2018-03-31T00:23:29.289Z,76.16
2018-03-31T00:25:57.197Z,76.27
2018-03-31T00:28:24.861Z,76.49
2018-03-31T00:30:52.515Z,76.62
2018-03-31T00:33:20.186Z,76.80
2018-03-31T00:35:47.849Z,76.48
2018-03-31T00:38:15.666Z,76.33
2018-03-31T00:40:43.789Z,76.39
2018-03-31T00:43:11.622Z,76.96
2018-03-31T00:45:39.522Z,77.20
2018-03-31T00:48:07.240Z,77.28
2018-03-31T00:50:34.839Z,77.30
2018-03-31T00:53:03.042Z,77.70
2018-03-31T00:55:30.804Z,77.59
2018-03-31T00:57:58.631Z,77.62
2018-03-31T01:00:26.659Z,77.46
2018-03-31T01:02:54.376Z,77.32
2018-03-31T01:05:22.211Z,77.96
2018-03-31T01:07:50.320Z,78.18
2018-03-31T01:10:17.979Z,77.94
2018-03-31T01:12:45.856Z,78.38
2018-03-31T01:15:13.342Z,78.42
2018-03-31T01:17:40.967Z,78.60
2018-03-31T01:20:08.885Z,78.44
2018-03-31T01:22:36.849Z,78.74
2018-03-31T01:25:04.562Z,78.74
2018-03-31T01:27:32.435Z,78.78
2018-03-31T01:30:00.089Z,78.44
2018-03-31T01:32:27.911Z,78.67
2018-03-31T01:34:55.652Z,78.64
2018-03-31T01:37:23.322Z,79.09
2018-03-31T01:39:50.940Z,79.03
2018-03-31T01:42:18.612Z,79.09
2018-03-31T01:44:46.192Z,79.43
2018-03-31T01:47:14.149Z,79.52
2018-03-31T01:49:41.847Z,79.12
2018-03-31T01:52:09.662Z,79.21
2018-03-31T01:54:37.528Z,79.08
2018-03-31T01:57:05.194Z,79.80
2018-03-31T01:59:33.046Z,79.31
2018-03-31T02:02:00.721Z,78.99
2018-03-31T02:04:28.379Z,79.41
2018-03-31T02:06:56.205Z,79.37
2018-03-31T02:09:23.908Z,79.46
2018-03-31T02:11:51.778Z,79.31
2018-03-31T02:14:19.605Z,79.19
2018-03-31T02:16:47.569Z,79.61
2018-03-31T02:19:15.244Z,80.03
2018-03-31T02:21:42.826Z,79.34
2018-03-31T02:24:10.640Z,79.69
2018-03-31T02:26:38.755Z,79.81
2018-03-31T02:29:06.594Z,79.65
2018-03-31T02:31:34.569Z,79.29
2018-03-31T02:34:02.220Z,79.47
2018-03-31T02:36:30.095Z,79.35
2018-03-31T02:38:57.692Z,79.70
2018-03-31T02:41:25.774Z,79.66
2018-03-31T02:43:54.043Z,79.82
2018-03-31T02:46:22.106Z,80.11
2018-03-31T02:48:50.022Z,79.24
2018-03-31T02:51:17.816Z,79.93
2018-03-31T02:53:45.904Z,80.08
2018-03-31T02:56:13.568Z,79.87
2018-03-31T02:58:41.439Z,79.59
2018-03-31T03:01:09.680Z,79.93
2018-03-31T03:03:37.590Z,79.75
2018-03-31T03:06:05.461Z,80.41
2018-03-31T03:08:33.174Z,79.65
2018-03-31T03:11:00.778Z,80.01
2018-03-31T03:13:28.588Z,79.80
2018-03-31T03:15:56.305Z,80.35
2018-03-31T03:18:23.965Z,79.97
2018-03-31T03:20:51.624Z,80.00
2018-03-31T03:23:19.497Z,79.53
2018-03-31T03:25:47.151Z,79.26
2018-03-31T03:28:15.024Z,79.26
2018-03-31T03:30:42.839Z,79.65
2018-03-31T03:33:10.830Z,79.82
2018-03-31T03:35:38.622Z,79.74
2018-03-31T03:38:06.287Z,79.93
2018-03-31T03:40:34.056Z,79.34
2018-03-31T03:43:02.608Z,78.96
2018-03-31T03:45:30.899Z,79.20
2018-03-31T03:47:58.945Z,79.19
2018-03-31T03:50:26.420Z,78.72
2018-03-31T03:52:54.302Z,78.93
2018-03-31T03:55:22.171Z,78.99
2018-03-31T03:57:49.982Z,78.79
2018-03-31T04:03:13.137Z,78.44
2018-03-31T04:05:40.513Z,78.68
2018-03-31T04:08:07.884Z,78.38
2018-03-31T04:10:35.240Z,78.57
2018-03-31T04:13:02.612Z,78.71
2018-03-31T04:15:30.090Z,78.10
2018-03-31T04:17:57.468Z,78.12
2018-03-31T04:20:24.860Z,78.77
2018-03-31T04:22:52.233Z,78.37
2018-03-31T04:25:19.666Z,78.50
2018-03-31T04:27:47.024Z,78.84
2018-03-31T04:30:14.448Z,78.87
2018-03-31T04:32:41.799Z,78.48
2018-03-31T04:35:09.570Z,77.77
2018-03-31T04:37:36.917Z,78.07
2018-03-31T04:40:04.313Z,77.74
2018-03-31T04:42:31.657Z,78.49
2018-03-31T04:44:59.047Z,77.81
2018-03-31T04:47:26.604Z,78.56
2018-03-31T04:49:54.389Z,77.52
2018-03-31T04:52:22.468Z,77.63
2018-03-31T04:54:49.810Z,77.48
2018-03-31T04:57:17.177Z,77.75
2018-03-31T04:59:44.768Z,78.14
2018-03-31T05:02:12.165Z,78.52
2018-03-31T05:04:39.832Z,78.11
2018-03-31T05:07:07.281Z,77.90
2018-03-31T05:09:34.645Z,78.17
2018-03-31T05:12:02.053Z,78.17
2018-03-31T05:14:29.757Z,78.41
2018-03-31T05:16:57.352Z,78.28
2018-03-31T05:19:24.794Z,78.17
2018-03-31T05:21:53.311Z,78.78
2018-03-31T05:24:21.025Z,78.55
2018-03-31T05:26:49.832Z,77.89
2018-03-31T05:29:18.257Z,78.23
2018-03-31T05:31:46.068Z,77.63
2018-03-31T05:34:14.257Z,77.29
2018-03-31T05:36:41.979Z,76.78
2018-03-31T05:39:10.417Z,77.92
2018-03-31T05:41:38.349Z,77.35
2018-03-31T05:44:06.637Z,76.83
2018-03-31T05:46:34.307Z,77.14
2018-03-31T05:49:01.679Z,77.21
2018-03-31T05:51:29.081Z,77.38
2018-03-31T05:53:56.556Z,77.41
2018-03-31T05:56:23.941Z,76.76
2018-03-31T05:58:51.431Z,77.43
2018-03-31T06:01:18.794Z,77.63
2018-03-31T06:03:46.168Z,77.88
2018-03-31T06:06:13.545Z,76.79
2018-03-31T06:08:41.052Z,77.31
2018-03-31T06:11:08.414Z,77.39
2018-03-31T06:13:35.953Z,77.53
2018-03-31T06:16:03.300Z,78.49
2018-03-31T06:18:30.660Z,79.18
2018-03-31T06:20:58.147Z,78.17
2018-03-31T06:23:25.539Z,79.37
2018-03-31T06:25:52.890Z,77.74
2018-03-31T06:28:20.424Z,78.86
2018-03-31T06:30:47.762Z,80.00
2018-03-31T06:33:15.125Z,80.73
2018-03-31T06:35:42.489Z,79.93
2018-03-31T06:38:10.093Z,81.32
2018-03-31T06:40:37.464Z,81.92
2018-03-31T06:43:04.809Z,81.12
2018-03-31T06:45:32.266Z,82.14
2018-03-31T06:47:59.606Z,82.03
2018-03-31T06:50:26.960Z,83.83
2018-03-31T06:52:54.292Z,84.23
2018-03-31T06:55:21.779Z,84.53
2018-03-31T06:57:49.331Z,85.39
2018-03-31T07:00:16.708Z,85.15
2018-03-31T07:02:44.048Z,85.24
2018-03-31T07:05:11.413Z,85.55
2018-03-31T07:07:38.833Z,86.68
2018-03-31T07:10:06.249Z,86.04
2018-03-31T07:12:33.625Z,85.66
2018-03-31T07:15:01.029Z,86.58
2018-03-31T07:17:28.426Z,84.91
2018-03-31T07:19:55.792Z,87.25
2018-03-31T07:22:23.170Z,86.87
2018-03-31T07:24:50.520Z,87.06
2018-03-31T07:27:18.085Z,86.22
2018-03-31T07:29:45.468Z,86.85
2018-03-31T07:32:12.939Z,86.66
2018-03-31T07:34:40.276Z,87.43
2018-03-31T07:37:07.753Z,87.17
2018-03-31T07:39:35.101Z,87.36
2018-03-31T07:42:02.508Z,87.02
2018-03-31T07:44:32.765Z,87.49
2018-03-31T07:47:00.144Z,87.15
2018-03-31T07:49:27.497Z,88.27
2018-03-31T07:51:54.919Z,87.88
2018-03-31T07:54:25.044Z,88.02
2018-03-31T07:56:52.433Z,87.62
2018-03-31T07:59:19.760Z,87.02
2018-03-31T08:01:47.165Z,87.01
2018-03-31T08:04:14.501Z,87.81
2018-03-31T08:06:41.926Z,87.88
2018-03-31T08:09:09.303Z,89.08
2018-03-31T08:11:36.712Z,88.72
2018-03-31T08:14:04.049Z,87.95
2018-03-31T08:16:31.450Z,86.89
2018-03-31T08:18:58.772Z,88.33
2018-03-31T08:21:26.232Z,86.73
2018-03-31T08:23:53.755Z,86.65
2018-03-31T08:26:21.130Z,86.40
2018-03-31T08:28:48.456Z,85.98
2018-03-31T08:31:15.847Z,86.96
2018-03-31T08:33:43.172Z,87.34
2018-03-31T08:36:10.577Z,85.75
2018-03-31T08:38:37.940Z,86.33
2018-03-31T08:41:05.330Z,84.96
2018-03-31T08:43:32.704Z,85.31
2018-03-31T08:46:00.126Z,86.05
2018-03-31T08:48:27.502Z,86.14
2018-03-31T08:50:54.896Z,85.22
2018-03-31T08:53:22.243Z,85.54
2018-03-31T08:55:49.704Z,86.47
2018-03-31T08:58:17.052Z,85.80
2018-03-31T09:00:44.425Z,84.49
2018-03-31T09:03:11.934Z,84.87
2018-03-31T09:05:39.411Z,85.52
2018-03-31T09:08:06.789Z,86.01
2018-03-31T09:10:34.132Z,85.61
2018-03-31T09:13:01.502Z,85.36
2018-03-31T09:15:28.859Z,84.83
2018-03-31T09:17:56.232Z,85.12
2018-03-31T09:20:23.818Z,84.69
2018-03-31T09:22:51.308Z,85.71
2018-03-31T09:25:18.648Z,85.32
2018-03-31T09:27:46.045Z,83.95
2018-03-31T09:30:13.397Z,84.76
2018-03-31T09:32:40.761Z,84.20
2018-03-31T09:35:08.120Z,83.81
2018-03-31T09:37:35.630Z,84.06
2018-03-31T09:40:03.024Z,84.33
2018-03-31T09:42:30.420Z,84.07
2018-03-31T09:44:57.841Z,85.36
2018-03-31T09:47:25.216Z,85.63
2018-03-31T09:49:52.621Z,86.55
2018-03-31T09:52:20.213Z,84.17
2018-03-31T09:54:47.572Z,85.24
2018-03-31T09:57:14.917Z,85.52
2018-03-31T09:59:42.329Z,83.21
2018-03-31T10:02:09.677Z,84.46
2018-03-31T10:04:43.520Z,85.23
2018-03-31T10:07:10.889Z,86.76
2018-03-31T10:09:38.300Z,83.93
2018-03-31T10:12:05.879Z,85.79
2018-03-31T10:14:33.268Z,85.79
2018-03-31T10:17:00.739Z,84.84
2018-03-31T10:19:28.116Z,87.77
2018-03-31T10:21:55.501Z,86.96
2018-03-31T10:24:22.973Z,87.69
2018-03-31T10:26:50.724Z,87.95
2018-03-31T10:29:18.154Z,85.80
2018-03-31T10:31:45.513Z,85.54
2018-03-31T10:34:12.840Z,85.77
2018-03-31T10:36:40.244Z,85.77
2018-03-31T10:39:07.768Z,85.68
2018-03-31T10:41:35.516Z,84.63
2018-03-31T10:44:02.865Z,86.24
2018-03-31T10:46:30.292Z,85.27
2018-03-31T10:48:57.612Z,84.81
2018-03-31T10:51:24.980Z,84.17
2018-03-31T10:53:52.343Z,84.22
2018-03-31T10:56:19.716Z,83.87
2018-03-31T10:58:47.097Z,83.73
2018-03-31T11:01:14.474Z,82.75
2018-03-31T11:03:41.836Z,84.77
2018-03-31T11:06:09.221Z,83.29
2018-03-31T11:08:36.572Z,82.84
2018-03-31T11:11:03.992Z,81.99
2018-03-31T11:13:31.373Z,81.29
2018-03-31T11:15:58.933Z,83.04
2018-03-31T11:18:26.341Z,81.85
2018-03-31T11:20:53.713Z,82.84
2018-03-31T11:23:21.056Z,83.28
2018-03-31T11:25:55.237Z,81.88
2018-03-31T11:28:22.620Z,81.47
2018-03-31T11:30:50.122Z,81.81
2018-03-31T11:33:17.466Z,79.75
2018-03-31T11:35:44.835Z,79.92
2018-03-31T11:38:12.216Z,81.97
2018-03-31T11:40:39.577Z,81.18
2018-03-31T11:43:07.061Z,80.39
2018-03-31T11:45:34.405Z,80.84
2018-03-31T11:48:01.770Z,79.24
2018-03-31T11:50:29.167Z,80.09
2018-03-31T11:52:56.564Z,80.10
2018-03-31T11:55:23.932Z,78.76
2018-03-31T11:57:51.284Z,79.17
2018-03-31T12:00:18.648Z,79.36
2018-03-31T12:02:46.004Z,78.29
2018-03-31T12:05:13.369Z,78.30
2018-03-31T12:07:40.773Z,79.11
2018-03-31T12:10:08.143Z,78.64
2018-03-31T12:12:35.504Z,78.09
2018-03-31T12:15:03.071Z,78.18
2018-03-31T12:17:30.447Z,76.51
2018-03-31T12:19:57.799Z,75.82
2018-03-31T12:22:25.209Z,77.12
2018-03-31T12:24:53.122Z,77.34
2018-03-31T12:27:20.492Z,78.54
2018-03-31T12:32:21.489Z,77.20
2018-03-31T12:34:48.933Z,76.80
2018-03-31T12:37:16.335Z,75.03
2018-03-31T12:39:43.780Z,76.40
2018-03-31T12:42:11.212Z,76.71
2018-03-31T12:44:38.850Z,75.22
2018-03-31T12:47:06.345Z,74.65
2018-03-31T12:49:33.749Z,74.75
2018-03-31T12:52:03.743Z,76.90
2018-03-31T12:54:31.542Z,76.11
2018-03-31T12:56:58.912Z,73.74
2018-03-31T12:59:27.004Z,74.24
2018-03-31T13:01:54.356Z,76.80
2018-03-31T13:04:21.735Z,75.79
2018-03-31T13:06:49.089Z,75.24
2018-03-31T13:09:16.476Z,76.78
2018-03-31T13:11:43.839Z,76.71
2018-03-31T13:14:11.253Z,76.65
2018-03-31T13:16:38.601Z,75.91
2018-03-31T13:19:05.971Z,75.37
2018-03-31T13:21:33.381Z,76.60
2018-03-31T13:24:00.812Z,78.38
2018-03-31T13:26:28.181Z,76.62
2018-03-31T13:28:55.565Z,75.76
2018-03-31T13:31:22.969Z,77.19
2018-03-31T13:33:50.361Z,76.47
2018-03-31T13:36:17.741Z,75.45
2018-03-31T13:38:45.140Z,77.12
2018-03-31T13:41:15.288Z,77.46
2018-03-31T13:43:42.633Z,76.59
2018-03-31T13:46:10.010Z,75.89
2018-03-31T13:48:37.400Z,76.21
2018-03-31T13:51:04.752Z,76.10
2018-03-31T13:53:32.085Z,77.03
2018-03-31T13:55:59.432Z,76.81
2018-03-31T13:58:26.773Z,76.80
2018-03-31T14:00:54.142Z,78.05
2018-03-31T14:03:21.523Z,77.84
2018-03-31T14:05:48.904Z,78.06
2018-03-31T14:08:19.038Z,78.22
2018-03-31T14:10:46.473Z,77.64
2018-03-31T14:13:20.257Z,78.88
2018-03-31T14:15:47.641Z,79.59
2018-03-31T14:18:14.973Z,79.71
2018-03-31T14:20:42.573Z,80.63
2018-03-31T14:23:09.973Z,81.56
2018-03-31T14:25:37.436Z,79.59
2018-03-31T14:28:04.764Z,82.21
2018-03-31T14:30:32.136Z,84.36
2018-03-31T14:32:59.532Z,85.71
2018-03-31T14:35:26.982Z,85.81
2018-03-31T14:37:54.446Z,84.44
2018-03-31T14:40:21.832Z,82.95
2018-03-31T14:42:49.180Z,82.94
2018-03-31T14:45:16.559Z,82.49
2018-03-31T14:47:43.925Z,83.91
2018-03-31T14:50:11.320Z,84.16
2018-03-31T14:52:38.933Z,85.14
2018-03-31T14:55:06.350Z,85.87
2018-03-31T14:57:33.713Z,84.65
2018-03-31T15:00:01.212Z,85.32
2018-03-31T15:02:28.656Z,84.72
2018-03-31T15:04:56.061Z,83.47
2018-03-31T15:07:23.433Z,87.11
2018-03-31T15:09:50.778Z,86.12
2018-03-31T15:12:18.116Z,86.45
2018-03-31T15:14:45.451Z,84.37
2018-03-31T15:17:12.809Z,87.06
2018-03-31T15:19:40.136Z,87.10
2018-03-31T15:22:07.620Z,85.08
2018-03-31T15:24:35.003Z,83.48
2018-03-31T15:27:02.434Z,85.17
2018-03-31T15:29:29.946Z,85.30
2018-03-31T15:31:57.374Z,84.79
2018-03-31T15:34:24.749Z,85.41
2018-03-31T15:36:52.145Z,86.28
2018-03-31T15:39:19.635Z,85.82
2018-03-31T15:41:46.980Z,87.40
2018-03-31T15:44:14.334Z,87.44
2018-03-31T15:46:41.762Z,86.74
2018-03-31T15:49:09.096Z,87.29
2018-03-31T15:51:36.462Z,87.40
2018-03-31T15:54:03.825Z,86.94
2018-03-31T15:56:31.178Z,87.37
2018-03-31T15:58:58.542Z,88.70
2018-03-31T16:01:25.950Z,89.13
2018-03-31T16:03:53.411Z,88.36
2018-03-31T16:06:20.764Z,90.28
2018-03-31T16:08:48.132Z,91.06
2018-03-31T16:11:15.584Z,89.85
2018-03-31T16:13:43.241Z,89.04
2018-03-31T16:16:10.774Z,89.59
2018-03-31T16:18:38.150Z,89.46
2018-03-31T16:21:05.508Z,89.21
2018-03-31T16:23:32.897Z,89.18
2018-03-31T16:26:00.499Z,88.45
2018-03-31T16:28:28.062Z,89.17
2018-03-31T16:30:55.425Z,89.46
2018-03-31T16:33:22.760Z,89.46
2018-03-31T16:35:50.108Z,89.58
2018-03-31T16:38:17.481Z,89.18
2018-03-31T16:40:44.833Z,90.26
2018-03-31T16:43:12.201Z,90.29
2018-03-31T16:45:39.563Z,90.84
2018-03-31T16:48:06.908Z,89.97
2018-03-31T16:50:34.245Z,90.15
2018-03-31T16:53:01.598Z,90.24
2018-03-31T16:55:28.964Z,91.07
2018-03-31T16:57:56.607Z,90.89
2018-03-31T17:00:24.267Z,91.21
2018-03-31T17:02:51.688Z,90.69
2018-03-31T17:05:19.134Z,90.61
2018-03-31T17:07:46.570Z,90.21
2018-03-31T17:10:13.981Z,90.32
2018-03-31T17:12:41.341Z,91.03
2018-03-31T17:15:08.692Z,91.07
2018-03-31T17:17:36.232Z,90.29
2018-03-31T17:20:03.620Z,90.23
2018-03-31T17:22:30.983Z,90.29
2018-03-31T17:24:58.303Z,90.30
2018-03-31T17:27:26.049Z,90.42
2018-03-31T17:29:53.425Z,90.90
2018-03-31T17:32:20.845Z,91.34
2018-03-31T17:34:48.218Z,90.89
2018-03-31T17:37:15.587Z,90.38
2018-03-31T17:39:42.985Z,91.28
2018-03-31T17:42:10.546Z,91.21
2018-03-31T17:44:38.202Z,90.92
2018-03-31T17:47:05.620Z,91.07
2018-03-31T17:49:33.019Z,92.06
2018-03-31T17:52:00.394Z,91.35
2018-03-31T17:54:27.769Z,91.50
2018-03-31T17:56:55.150Z,92.77
2018-03-31T17:59:22.760Z,92.61
2018-03-31T18:01:50.183Z,91.54
2018-03-31T18:04:17.602Z,92.29
2018-03-31T18:06:45.028Z,91.91
2018-03-31T18:09:12.411Z,91.54
2018-03-31T18:11:39.781Z,91.46
2018-03-31T18:14:07.156Z,91.27
2018-03-31T18:16:34.523Z,91.54
2018-03-31T18:19:01.864Z,93.60
2018-03-31T18:21:29.237Z,91.82
2018-03-31T18:23:56.588Z,92.37
2018-03-31T18:26:24.003Z,93.00
2018-03-31T18:28:51.418Z,92.43
2018-03-31T18:31:18.942Z,92.77
2018-03-31T18:33:46.532Z,92.13
2018-03-31T18:36:13.947Z,92.98
2018-03-31T18:38:41.321Z,92.18
2018-03-31T18:41:08.700Z,92.85
2018-03-31T18:43:36.056Z,93.31
2018-03-31T18:46:03.466Z,93.50
2018-03-31T18:48:30.906Z,92.82
2018-03-31T18:50:58.267Z,92.71
2018-03-31T18:53:25.632Z,92.17
2018-03-31T18:55:53.027Z,92.32
2018-03-31T18:58:20.422Z,92.08
2018-03-31T19:00:47.839Z,92.54
2018-03-31T19:03:15.221Z,92.54
2018-03-31T19:05:42.626Z,92.36
2018-03-31T19:08:10.223Z,92.99
2018-03-31T19:10:37.689Z,92.79
2018-03-31T19:13:05.140Z,93.20
2018-03-31T19:15:32.505Z,92.37
2018-03-31T19:17:59.868Z,92.10
2018-03-31T19:20:27.278Z,91.79
2018-03-31T19:22:54.843Z,92.38
2018-03-31T19:25:26.511Z,92.60
2018-03-31T19:27:53.904Z,92.79
2018-03-31T19:30:25.487Z,92.31
2018-03-31T19:32:52.851Z,92.50
2018-03-31T19:35:20.224Z,92.24
2018-03-31T19:37:47.734Z,92.91
2018-03-31T19:40:15.094Z,93.03
2018-03-31T19:42:42.501Z,92.50
2018-03-31T19:45:09.907Z,92.26
2018-03-31T19:47:37.269Z,92.60
2018-03-31T19:50:04.914Z,93.44
2018-03-31T19:52:32.309Z,92.83
2018-03-31T19:54:59.693Z,92.53
2018-03-31T19:57:27.069Z,92.69
2018-03-31T19:59:54.414Z,92.68
2018-03-31T20:02:21.800Z,92.76
2018-03-31T20:04:49.270Z,92.58
2018-03-31T20:07:16.801Z,92.93
2018-03-31T20:09:44.176Z,94.21
2018-03-31T20:12:11.581Z,93.89
2018-03-31T20:14:38.962Z,92.87
2018-03-31T20:17:06.749Z,93.16
2018-03-31T20:19:39.853Z,93.11
2018-03-31T20:22:07.305Z,92.39
2018-03-31T20:24:34.744Z,91.77
2018-03-31T20:27:02.125Z,92.34
2018-03-31T20:29:29.962Z,92.66
2018-03-31T20:31:57.372Z,93.50
2018-03-31T20:34:25.700Z,93.00
2018-03-31T20:36:53.113Z,92.17
2018-03-31T20:39:20.468Z,92.89
2018-03-31T20:41:47.882Z,91.70
2018-03-31T20:44:15.225Z,91.96
2018-03-31T20:46:42.748Z,92.04
2018-03-31T20:49:10.094Z,93.06
2018-03-31T20:51:37.558Z,91.82
2018-03-31T20:54:04.925Z,91.78
2018-03-31T20:56:32.423Z,91.77
2018-03-31T20:58:59.745Z,92.47
2018-03-31T21:01:27.154Z,92.61
2018-03-31T21:03:54.569Z,92.66
2018-03-31T21:06:21.952Z,92.61
2018-03-31T21:08:49.314Z,92.64
2018-03-31T21:11:16.896Z,92.45
2018-03-31T21:13:44.261Z,92.93
2018-03-31T21:16:11.637Z,92.60
2018-03-31T21:18:39.181Z,92.39
2018-03-31T21:21:06.667Z,93.15
2018-03-31T21:23:34.020Z,92.92
2018-03-31T21:26:01.497Z,92.87
2018-03-31T21:28:28.861Z,93.01
2018-03-31T21:30:56.258Z,92.68
2018-03-31T21:33:23.617Z,92.37
2018-03-31T21:35:51.012Z,92.27
2018-03-31T21:38:18.409Z,93.30
2018-03-31T21:40:46.002Z,93.30
2018-03-31T21:43:13.360Z,93.35
2018-03-31T21:45:40.855Z,93.42
2018-03-31T21:48:08.441Z,92.75
2018-03-31T21:50:36.174Z,93.05
2018-03-31T21:53:03.554Z,93.95
2018-03-31T21:55:30.939Z,93.70
2018-03-31T21:57:58.272Z,93.28
2018-03-31T22:00:29.406Z,93.79
2018-03-31T22:02:56.889Z,93.62
2018-03-31T22:05:24.300Z,93.85
2018-03-31T22:07:51.697Z,94.14
2018-03-31T22:10:19.148Z,93.07
2018-03-31T22:12:46.578Z,93.10
2018-03-31T22:15:19.226Z,92.77
2018-03-31T22:17:46.639Z,92.98
2018-03-31T22:20:13.992Z,93.45
2018-03-31T22:22:40.741Z,93.73
2018-03-31T22:25:08.124Z,92.85
2018-03-31T22:27:35.592Z,92.32
2018-03-31T22:30:03.506Z,92.41
2018-03-31T22:32:30.880Z,93.07
2018-03-31T22:34:58.207Z,93.61
2018-03-31T22:37:25.636Z,92.86
2018-03-31T22:39:52.984Z,92.79
2018-03-31T22:42:20.570Z,94.30
2018-03-31T22:44:47.967Z,94.13
2018-03-31T22:47:15.338Z,93.52
2018-03-31T22:49:42.950Z,93.00
2018-03-31T22:52:10.317Z,93.73
2018-03-31T22:54:37.793Z,93.93
2018-03-31T22:57:05.209Z,94.45
2018-03-31T22:59:32.969Z,94.33
2018-03-31T23:02:00.378Z,94.14
2018-03-31T23:04:27.769Z,93.21
2018-03-31T23:06:55.147Z,93.06
2018-03-31T23:09:22.558Z,93.27
2018-03-31T23:11:50.184Z,93.62
2018-03-31T23:14:17.596Z,93.93
2018-03-31T23:16:44.986Z,93.13
2018-03-31T23:19:12.379Z,94.01
2018-03-31T23:21:39.750Z,92.94
2018-03-31T23:24:07.130Z,93.04
2018-03-31T23:26:34.495Z,93.62
2018-03-31T23:29:02.115Z,94.14
2018-03-31T23:31:29.464Z,93.80
2018-03-31T23:33:56.804Z,93.45
2018-03-31T23:36:24.162Z,93.44
2018-03-31T23:38:51.496Z,93.15
2018-03-31T23:41:18.844Z,93.37
2018-03-31T23:43:46.219Z,93.38
2018-03-31T23:46:13.651Z,93.48
2018-03-31T23:48:41.127Z,94.54
2018-03-31T23:51:08.491Z,94.27
2018-03-31T23:53:35.828Z,93.40
2018-03-31T23:56:03.234Z,93.73
2018-03-31T23:58:30.577Z,93.66
